Pleasant Home, Ohio
Current Conditions -  °F | °C
As of 7:56 AM on Thursday 18 Dec 2014 (Local Time) from KBJJ Reporting Station
Overcast Overcast  
Wind Chill: 17°   Ceiling: 1800
Heat Index: 27°   Visibility: 10mi
Dew Point: 21°   Wind: 10mph
Humidity: 78%   Direction: 270°W
Pressure: 30.21"   Gusts: NA
Location:  40.9441°N, 82.1006°W
Report Text: KBJJ 181256Z AUTO 27009KT 10SM OVC018 M03/M06 A3021 RMK AO2 SLP243 T10281061 TSNO
Loading
Personal Weather Stations






























Interactive Weather Map New forecast layout! Learn more

10-Day Weather Forecast

Advertisements
Track Severe Weather on mobile